Time;durP1;ratioP1;P1;durP2;ratioP2;P2;SDS_P1;SDS_P2;PMS_P1;PMS_P2;Temp;Humidity;BMP_temperature;BMP_pressure;BME280_temperature;BME280_humidity;BME280_pressure;Samples;Min_cycle;Max_cycle;Signal;HPM_P1;HPM_P2
2022/11/21 00:01:48;;;;;;;0.30;0.20;;;4.30;99.90;;;;;;5115701;28;20935;-78
2022/11/21 00:04:14;;;;;;;0.30;0.30;;;4.30;99.90;;;;;;5115634;28;20471;-78
2022/11/21 00:06:41;;;;;;;0.30;0.30;;;4.30;99.90;;;;;;5115641;28;20808;-78
2022/11/21 00:09:08;;;;;;;0.30;0.20;;;4.20;99.90;;;;;;5115276;28;20448;-79
2022/11/21 00:11:35;;;;;;;0.30;0.20;;;4.10;99.90;;;;;;5115458;28;20489;-78
2022/11/21 00:14:01;;;;;;;0.30;0.30;;;4.10;99.90;;;;;;5115404;28;20486;-78
2022/11/21 00:16:29;;;;;;;0.30;0.30;;;4.00;99.90;;;;;;5115771;28;20439;-78
2022/11/21 00:18:57;;;;;;;0.30;0.30;;;4.00;99.90;;;;;;5115130;28;20471;-78
2022/11/21 00:21:24;;;;;;;0.30;0.20;;;4.00;99.90;;;;;;5115403;28;20767;-78
2022/11/21 00:23:53;;;;;;;0.30;0.20;;;3.90;99.90;;;;;;5115038;28;20468;-78
2022/11/21 00:26:19;;;;;;;0.30;0.23;;;3.80;99.90;;;;;;5114955;28;20447;-78
2022/11/21 00:28:46;;;;;;;0.30;0.20;;;3.80;99.90;;;;;;5114859;28;20939;-78
2022/11/21 00:31:19;;;;;;;0.30;0.30;;;3.70;99.90;;;;;;5114769;28;21081;-78
2022/11/21 00:33:47;;;;;;;0.30;0.20;;;3.70;99.90;;;;;;5115078;28;20459;-78
2022/11/21 00:36:14;;;;;;;0.60;0.60;;;3.70;99.90;;;;;;5115051;28;20447;-78
2022/11/21 00:38:40;;;;;;;0.30;0.30;;;3.60;99.90;;;;;;5114993;28;20439;-78
2022/11/21 00:41:07;;;;;;;0.30;0.20;;;3.60;99.90;;;;;;5114637;28;20965;-78
2022/11/21 00:43:34;;;;;;;0.40;0.37;;;3.50;99.90;;;;;;5114825;28;20464;-79
2022/11/21 00:46:01;;;;;;;0.30;0.30;;;3.40;99.90;;;;;;5114926;28;20504;-77
2022/11/21 00:48:28;;;;;;;0.30;0.30;;;3.30;99.90;;;;;;5114692;28;20470;-77
2022/11/21 00:50:56;;;;;;;0.30;0.30;;;3.30;99.90;;;;;;5114408;28;20499;-77
2022/11/21 00:53:23;;;;;;;0.30;0.30;;;3.30;99.90;;;;;;5114676;28;20459;-77
2022/11/21 00:55:50;;;;;;;0.33;0.33;;;3.30;99.90;;;;;;5114714;28;20451;-76
2022/11/21 00:58:17;;;;;;;0.30;0.20;;;3.30;99.90;;;;;;5114664;28;20444;-77
2022/11/21 01:00:43;;;;;;;0.30;0.20;;;3.30;99.90;;;;;;5114543;28;20448;-76
2022/11/21 01:03:10;;;;;;;0.70;0.50;;;3.30;99.90;;;;;;5114461;28;20466;-77
2022/11/21 01:05:37;;;;;;;0.30;0.30;;;3.30;99.90;;;;;;5114416;28;20820;-78
2022/11/21 01:08:05;;;;;;;0.30;0.20;;;3.30;99.90;;;;;;5114151;28;20938;-77
2022/11/21 01:10:34;;;;;;;0.30;0.30;;;3.40;99.90;;;;;;5114959;28;20440;-77
2022/11/21 01:13:00;;;;;;;0.30;0.20;;;3.40;99.90;;;;;;5114190;28;20479;-77
2022/11/21 01:15:27;;;;;;;0.30;0.30;;;3.50;99.90;;;;;;5114340;28;20446;-77
2022/11/21 01:17:54;;;;;;;0.30;0.30;;;3.60;99.90;;;;;;5113861;28;20451;-77
2022/11/21 01:20:21;;;;;;;0.30;0.30;;;3.60;99.90;;;;;;5114082;27;20482;-76
2022/11/21 01:22:47;;;;;;;0.30;0.30;;;3.70;99.90;;;;;;5114216;28;20443;-76
2022/11/21 01:25:16;;;;;;;0.30;0.20;;;3.80;99.90;;;;;;5114116;28;20546;-76
2022/11/21 01:27:42;;;;;;;0.30;0.30;;;3.80;99.90;;;;;;5114421;28;20446;-77
2022/11/21 01:30:10;;;;;;;0.30;0.20;;;3.80;99.90;;;;;;5114346;28;20455;-77
2022/11/21 01:32:37;;;;;;;0.30;0.20;;;3.80;99.90;;;;;;5113693;28;20526;-76
2022/11/21 01:35:04;;;;;;;0.30;0.30;;;3.80;99.90;;;;;;5113630;28;20966;-76
2022/11/21 01:37:31;;;;;;;0.30;0.30;;;3.90;99.90;;;;;;5114020;28;20489;-76
2022/11/21 01:39:58;;;;;;;0.30;0.30;;;3.90;99.90;;;;;;5113661;28;20444;-76
2022/11/21 01:42:26;;;;;;;0.30;0.20;;;4.00;99.90;;;;;;5113925;28;20440;-76
2022/11/21 01:44:54;;;;;;;0.30;0.20;;;4.00;99.90;;;;;;5113889;28;20467;-76
2022/11/21 01:47:22;;;;;;;0.30;0.30;;;4.00;99.90;;;;;;5113926;28;20489;-76
2022/11/21 01:49:49;;;;;;;0.30;0.27;;;4.00;99.90;;;;;;5113550;28;20934;-76
2022/11/21 01:52:20;;;;;;;0.30;0.20;;;4.00;99.90;;;;;;5113769;28;20479;-76
2022/11/21 01:54:51;;;;;;;0.30;0.30;;;4.00;99.90;;;;;;5113783;28;20478;-76
2022/11/21 01:57:23;;;;;;;0.30;0.20;;;4.10;99.90;;;;;;5113558;28;20925;-76
2022/11/21 01:59:54;;;;;;;0.30;0.30;;;4.10;99.90;;;;;;5113809;28;20424;-76
2022/11/21 02:02:27;;;;;;;0.30;0.30;;;4.10;99.90;;;;;;5117022;28;20427;-76
2022/11/21 02:04:55;;;;;;;0.30;0.30;;;4.10;99.90;;;;;;5117954;27;20506;-76
2022/11/21 02:07:23;;;;;;;0.30;0.20;;;4.20;99.90;;;;;;5117961;28;20445;-76
2022/11/21 02:09:55;;;;;;;0.30;0.30;;;4.20;99.90;;;;;;5118265;28;20431;-76
2022/11/21 02:12:26;;;;;;;0.30;0.30;;;4.20;99.90;;;;;;5117850;28;20467;-76
2022/11/21 02:14:55;;;;;;;0.30;0.30;;;4.20;99.90;;;;;;5117771;28;20471;-76
2022/11/21 02:17:22;;;;;;;0.60;0.40;;;4.10;99.90;;;;;;5117793;28;20455;-76
2022/11/21 02:19:54;;;;;;;0.30;0.30;;;4.20;99.90;;;;;;5117377;28;20479;-76
2022/11/21 02:22:31;;;;;;;0.30;0.20;;;4.10;99.90;;;;;;5117982;28;20430;-76
2022/11/21 02:25:05;;;;;;;0.30;0.20;;;4.10;99.90;;;;;;5117626;28;20467;-76
2022/11/21 02:27:32;;;;;;;0.30;0.20;;;4.10;99.90;;;;;;5117615;28;20504;-76
2022/11/21 02:29:59;;;;;;;0.30;0.30;;;4.10;99.90;;;;;;5117568;28;20443;-76
2022/11/21 02:32:33;;;;;;;0.90;0.40;;;4.00;99.90;;;;;;5117598;28;20475;-76
2022/11/21 02:34:59;;;;;;;0.30;0.20;;;4.00;99.90;;;;;;5117138;28;20467;-76
2022/11/21 02:37:26;;;;;;;0.30;0.20;;;4.00;99.90;;;;;;5117455;28;20447;-76
2022/11/21 02:39:54;;;;;;;0.30;0.20;;;4.00;99.90;;;;;;5117618;28;20443;-76
2022/11/21 02:42:30;;;;;;;0.30;0.30;;;3.90;99.90;;;;;;5117433;28;20440;-76
2022/11/21 02:45:03;;;;;;;0.30;0.20;;;4.00;99.90;;;;;;5116932;28;20966;-76
2022/11/21 02:47:32;;;;;;;0.30;0.30;;;4.00;99.90;;;;;;5117279;28;20806;-76
2022/11/21 02:50:06;;;;;;;0.30;0.20;;;4.00;99.90;;;;;;5117157;28;20443;-76
2022/11/21 02:52:33;;;;;;;0.30;0.30;;;4.00;99.90;;;;;;5117072;28;20468;-77
2022/11/21 02:55:00;;;;;;;0.30;0.30;;;3.90;99.90;;;;;;5117034;27;20469;-76
2022/11/21 02:57:28;;;;;;;0.30;0.30;;;3.90;99.90;;;;;;5117039;28;20539;-76
2022/11/21 02:59:55;;;;;;;0.30;0.20;;;3.90;99.90;;;;;;5117013;28;20444;-76
2022/11/21 03:02:21;;;;;;;0.30;0.30;;;3.90;99.90;;;;;;5116969;27;20457;-76
2022/11/21 03:04:48;;;;;;;0.30;0.20;;;3.80;99.90;;;;;;5116500;28;20470;-76
2022/11/21 03:07:15;;;;;;;0.30;0.20;;;3.80;99.90;;;;;;5116788;28;20465;-76
2022/11/21 03:09:42;;;;;;;0.30;0.30;;;3.70;99.90;;;;;;5116791;28;20439;-76
2022/11/21 03:12:09;;;;;;;0.30;0.30;;;3.50;99.90;;;;;;5116594;28;20475;-77
2022/11/21 03:14:38;;;;;;;0.30;0.30;;;3.50;99.90;;;;;;5116325;28;20974;-76
2022/11/21 03:17:05;;;;;;;0.30;0.30;;;3.50;99.90;;;;;;5116356;28;20948;-76
2022/11/21 03:19:31;;;;;;;0.30;0.30;;;3.50;99.90;;;;;;5116502;28;20475;-77
2022/11/21 03:21:58;;;;;;;0.30;0.20;;;3.60;99.90;;;;;;5116555;28;20443;-76
2022/11/21 03:24:25;;;;;;;0.83;0.83;;;3.50;99.90;;;;;;5116424;28;20459;-76
2022/11/21 03:26:52;;;;;;;0.30;0.20;;;3.50;99.90;;;;;;5116461;28;20452;-77
2022/11/21 03:29:18;;;;;;;0.30;0.20;;;3.60;99.90;;;;;;5116084;28;20963;-76
2022/11/21 03:31:46;;;;;;;0.30;0.30;;;3.60;99.90;;;;;;5115997;28;20451;-77
2022/11/21 03:34:13;;;;;;;0.30;0.30;;;3.70;99.90;;;;;;5115976;28;20464;-77
2022/11/21 03:36:40;;;;;;;0.30;0.23;;;3.60;99.90;;;;;;5116282;28;20456;-76
2022/11/21 03:39:07;;;;;;;0.83;0.40;;;3.50;99.90;;;;;;5116206;28;20447;-77
2022/11/21 03:41:34;;;;;;;0.30;0.20;;;3.50;99.90;;;;;;5116406;28;20456;-76
2022/11/21 03:44:03;;;;;;;0.30;0.20;;;3.60;99.90;;;;;;5116084;28;20829;-77
2022/11/21 03:46:32;;;;;;;0.30;0.30;;;3.60;99.90;;;;;;5116110;28;20447;-77
2022/11/21 03:49:00;;;;;;;0.30;0.20;;;3.70;99.90;;;;;;5115745;28;20991;-77
2022/11/21 03:51:28;;;;;;;0.30;0.30;;;3.70;99.90;;;;;;5115711;28;20961;-77
2022/11/21 03:53:54;;;;;;;0.40;0.30;;;3.70;99.90;;;;;;5115772;28;20484;-77
2022/11/21 03:56:22;;;;;;;0.30;0.30;;;3.70;99.90;;;;;;5115914;28;20448;-76
2022/11/21 03:58:48;;;;;;;0.30;0.20;;;3.70;99.90;;;;;;5115818;28;20444;-77
2022/11/21 04:01:15;;;;;;;0.30;0.30;;;3.70;99.90;;;;;;5115803;28;20815;-77
2022/11/21 04:03:42;;;;;;;0.30;0.20;;;3.70;99.90;;;;;;5115625;28;20460;-77
2022/11/21 04:06:12;;;;;;;0.30;0.27;;;3.70;99.90;;;;;;5115673;28;20943;-77
2022/11/21 04:08:39;;;;;;;0.30;0.30;;;3.80;99.90;;;;;;5115669;28;20471;-76
2022/11/21 04:11:06;;;;;;;0.40;0.40;;;3.80;99.90;;;;;;5115603;28;20444;-77
2022/11/21 04:13:33;;;;;;;0.30;0.30;;;3.80;99.90;;;;;;5115365;28;20494;-77
2022/11/21 04:16:00;;;;;;;0.30;0.30;;;3.80;99.90;;;;;;5115204;28;20962;-77
2022/11/21 04:18:27;;;;;;;0.30;0.30;;;3.90;99.90;;;;;;5115100;28;20448;-77
2022/11/21 04:20:56;;;;;;;0.30;0.30;;;3.80;99.90;;;;;;5115386;28;20446;-77
2022/11/21 04:23:25;;;;;;;0.30;0.30;;;3.90;99.90;;;;;;5114949;28;20460;-77
2022/11/21 04:25:51;;;;;;;0.30;0.30;;;3.90;99.90;;;;;;5115162;28;20444;-77
2022/11/21 04:28:18;;;;;;;0.30;0.20;;;4.00;99.90;;;;;;5115234;28;20459;-77
2022/11/21 04:30:45;;;;;;;0.30;0.20;;;4.00;99.90;;;;;;5114885;28;20792;-77
2022/11/21 04:33:14;;;;;;;0.30;0.20;;;4.10;99.90;;;;;;5114715;28;20994;-77
2022/11/21 04:35:42;;;;;;;0.30;0.20;;;4.10;99.90;;;;;;5115360;28;20443;-76
2022/11/21 04:38:09;;;;;;;0.30;0.30;;;4.10;99.90;;;;;;5115017;28;20444;-77
2022/11/21 04:40:37;;;;;;;0.30;0.30;;;4.20;99.90;;;;;;5114967;28;20448;-77
2022/11/21 04:43:04;;;;;;;0.30;0.30;;;4.20;99.90;;;;;;5114860;28;20463;-77
2022/11/21 04:45:31;;;;;;;0.30;0.20;;;4.30;99.90;;;;;;5114935;28;20789;-77
2022/11/21 04:47:58;;;;;;;0.30;0.20;;;4.20;99.90;;;;;;5114824;28;20444;-77
2022/11/21 04:50:25;;;;;;;0.30;0.20;;;4.20;99.90;;;;;;5114804;28;20450;-77
2022/11/21 04:52:52;;;;;;;0.40;0.30;;;4.20;99.90;;;;;;5114586;28;20843;-77
2022/11/21 04:55:20;;;;;;;0.30;0.30;;;4.10;99.90;;;;;;5114447;28;20947;-77
2022/11/21 04:57:48;;;;;;;0.30;0.30;;;4.20;99.90;;;;;;5114366;28;20443;-77
2022/11/21 05:00:16;;;;;;;0.30;0.20;;;4.20;99.90;;;;;;5114623;28;20447;-77
2022/11/21 05:02:43;;;;;;;0.30;0.30;;;4.30;99.90;;;;;;5114584;28;20807;-77
2022/11/21 05:05:10;;;;;;;0.30;0.30;;;4.40;99.90;;;;;;5114484;28;20827;-77
2022/11/21 05:07:37;;;;;;;0.30;0.20;;;4.40;99.90;;;;;;5114495;28;20446;-77
2022/11/21 05:10:05;;;;;;;0.30;0.20;;;4.50;99.90;;;;;;5114498;28;20444;-77
2022/11/21 05:15:14;;;;;;;0.30;0.20;;;4.50;99.90;;;;;;5091303;28;20444;-78
2022/11/21 05:17:41;;;;;;;0.30;0.20;;;4.50;99.90;;;;;;5114343;28;20439;-77
2022/11/21 05:20:09;;;;;;;0.30;0.30;;;4.50;99.90;;;;;;5114117;28;20471;-77
2022/11/21 05:22:36;;;;;;;0.40;0.30;;;4.50;99.90;;;;;;5114213;28;20435;-77
2022/11/21 05:25:03;;;;;;;0.30;0.20;;;4.60;99.90;;;;;;5114774;28;20463;-77
2022/11/21 05:27:30;;;;;;;0.30;0.30;;;4.50;99.90;;;;;;5113884;28;20961;-77
2022/11/21 05:29:57;;;;;;;0.70;0.30;;;4.50;99.90;;;;;;5114157;28;20454;-76
2022/11/21 05:32:25;;;;;;;0.30;0.30;;;4.50;99.90;;;;;;5114039;28;20436;-76
2022/11/21 05:34:51;;;;;;;0.30;0.30;;;4.60;99.90;;;;;;5113794;28;20474;-76
2022/11/21 05:37:20;;;;;;;0.30;0.30;;;4.60;99.90;;;;;;5113441;28;20440;-76
2022/11/21 05:39:47;;;;;;;0.30;0.30;;;4.60;99.90;;;;;;5113997;28;20447;-76
2022/11/21 05:42:14;;;;;;;0.30;0.30;;;4.50;99.90;;;;;;5113978;28;20803;-76
2022/11/21 05:44:39;;;;;;;0.30;0.20;;;4.40;99.90;;;;;;5113934;28;20805;-76
2022/11/21 05:47:06;;;;;;;0.30;0.20;;;4.40;99.90;;;;;;5113978;28;20443;-76
2022/11/21 05:49:34;;;;;;;0.30;0.20;;;4.40;99.90;;;;;;5113616;28;20586;-76
2022/11/21 05:52:01;;;;;;;0.30;0.20;;;4.40;99.90;;;;;;5113520;28;20789;-76
2022/11/21 05:54:28;;;;;;;0.30;0.30;;;4.40;99.90;;;;;;5113700;28;20488;-77
2022/11/21 05:56:54;;;;;;;0.30;0.20;;;4.30;99.90;;;;;;5113810;28;20440;-76
2022/11/21 05:59:21;;;;;;;0.30;0.30;;;4.40;99.90;;;;;;5113490;28;20935;-77
2022/11/21 06:04:34;;;;;;;0.30;0.20;;;4.30;99.90;;;;;;5113571;28;20515;-77
2022/11/21 06:07:01;;;;;;;0.30;0.20;;;4.40;99.90;;;;;;5113795;28;20424;-76
2022/11/21 06:09:28;;;;;;;0.30;0.20;;;4.30;99.90;;;;;;5113772;28;20436;-77
2022/11/21 06:11:54;;;;;;;0.30;0.23;;;4.20;99.90;;;;;;5113980;28;20447;-76
2022/11/21 06:14:21;;;;;;;0.30;0.20;;;4.10;99.90;;;;;;5113496;28;20483;-76
2022/11/21 06:16:48;;;;;;;0.40;0.30;;;4.00;99.90;;;;;;5113605;28;20454;-76
2022/11/21 06:19:14;;;;;;;0.30;0.30;;;4.00;99.90;;;;;;5113061;28;20483;-77
2022/11/21 06:21:42;;;;;;;0.40;0.30;;;4.00;99.90;;;;;;5113604;28;20451;-76
2022/11/21 06:24:11;;;;;;;0.67;0.53;;;4.00;99.90;;;;;;5113197;28;20463;-76
2022/11/21 06:26:37;;;;;;;0.30;0.20;;;3.80;99.90;;;;;;5113556;28;20451;-76
2022/11/21 06:29:04;;;;;;;0.30;0.30;;;3.80;99.90;;;;;;5113517;28;20443;-76
2022/11/21 06:31:31;;;;;;;0.30;0.20;;;3.80;99.90;;;;;;5113443;28;20455;-76
2022/11/21 06:33:59;;;;;;;1.33;0.37;;;3.80;99.90;;;;;;5112987;28;20857;-76
2022/11/21 06:36:26;;;;;;;0.40;0.37;;;3.70;99.90;;;;;;5113108;28;20446;-77
2022/11/21 06:38:55;;;;;;;0.30;0.27;;;3.70;99.90;;;;;;5113359;28;20452;-76
2022/11/21 06:41:24;;;;;;;0.30;0.30;;;3.70;99.90;;;;;;5113038;28;20957;-77
2022/11/21 06:43:51;;;;;;;0.30;0.30;;;3.60;99.90;;;;;;5113212;28;20456;-76
2022/11/21 06:46:18;;;;;;;0.30;0.20;;;3.60;99.90;;;;;;5113583;28;20448;-77
2022/11/21 06:48:45;;;;;;;0.30;0.20;;;3.60;99.90;;;;;;5116913;28;20508;-76
2022/11/21 06:51:16;;;;;;;0.47;0.30;;;3.60;99.90;;;;;;5117234;28;20451;-76
2022/11/21 06:53:43;;;;;;;0.30;0.30;;;3.60;99.90;;;;;;5116656;28;20511;-76
2022/11/21 06:56:11;;;;;;;0.30;0.20;;;3.50;99.90;;;;;;5117029;28;20447;-76
2022/11/21 06:58:38;;;;;;;0.30;0.30;;;3.50;99.90;;;;;;5117104;28;20458;-76
2022/11/21 07:01:05;;;;;;;0.30;0.20;;;3.50;99.90;;;;;;5116968;28;20442;-76
2022/11/21 07:03:32;;;;;;;0.30;0.30;;;3.50;99.90;;;;;;5116775;28;20459;-76
2022/11/21 07:06:00;;;;;;;0.30;0.30;;;3.50;99.90;;;;;;5116909;28;20443;-76
2022/11/21 07:08:27;;;;;;;0.30;0.30;;;3.50;99.90;;;;;;5116792;28;20447;-76
2022/11/21 07:10:54;;;;;;;0.30;0.30;;;3.50;99.90;;;;;;5116786;28;20452;-76
2022/11/21 07:13:21;;;;;;;0.30;0.30;;;3.50;99.90;;;;;;5116541;28;20479;-77
2022/11/21 07:15:50;;;;;;;0.30;0.20;;;3.50;99.90;;;;;;5116711;28;20454;-76
2022/11/21 07:18:18;;;;;;;0.30;0.30;;;3.50;99.90;;;;;;5116451;28;20457;-76
2022/11/21 07:20:45;;;;;;;0.30;0.20;;;3.60;99.90;;;;;;5116371;28;20997;-77
2022/11/21 07:23:12;;;;;;;0.30;0.30;;;3.50;99.90;;;;;;5116466;28;20460;-76
2022/11/21 07:25:39;;;;;;;0.30;0.30;;;3.50;99.90;;;;;;5116165;28;20981;-76
2022/11/21 07:28:07;;;;;;;0.30;0.30;;;3.60;99.90;;;;;;5116091;27;20952;-77
2022/11/21 07:30:35;;;;;;;0.40;0.40;;;3.60;99.90;;;;;;5116024;28;20451;-77
2022/11/21 07:33:05;;;;;;;0.30;0.30;;;3.70;99.90;;;;;;5116137;28;20478;-77
2022/11/21 07:35:32;;;;;;;0.30;0.30;;;3.80;99.90;;;;;;5115888;28;21023;-77
2022/11/21 07:37:59;;;;;;;0.37;0.27;;;3.90;99.90;;;;;;5116111;28;20447;-77
2022/11/21 07:40:26;;;;;;;0.30;0.20;;;3.90;99.90;;;;;;5116048;28;20946;-77
2022/11/21 07:42:53;;;;;;;0.30;0.20;;;3.90;99.90;;;;;;5116726;28;20443;-77
2022/11/21 07:45:20;;;;;;;0.30;0.20;;;4.00;99.90;;;;;;5116361;28;20454;-77
2022/11/21 07:47:48;;;;;;;0.30;0.30;;;4.00;99.90;;;;;;5116016;28;20446;-77
2022/11/21 07:50:15;;;;;;;0.30;0.20;;;4.10;99.90;;;;;;5116175;28;20444;-77
2022/11/21 07:52:41;;;;;;;0.30;0.30;;;4.10;99.90;;;;;;5115882;28;20446;-77
2022/11/21 07:55:09;;;;;;;0.30;0.20;;;4.10;99.90;;;;;;5116005;28;20479;-77
2022/11/21 07:57:35;;;;;;;0.30;0.30;;;4.10;99.90;;;;;;5115709;28;20447;-77
2022/11/21 08:00:03;;;;;;;0.40;0.30;;;4.20;99.90;;;;;;5114825;28;20447;-77
2022/11/21 08:02:29;;;;;;;0.30;0.30;;;4.30;99.90;;;;;;5115706;28;20444;-76
2022/11/21 08:04:58;;;;;;;0.30;0.30;;;4.30;99.90;;;;;;5115250;28;20970;-77
2022/11/21 08:07:24;;;;;;;0.40;0.30;;;4.50;99.90;;;;;;5115900;28;20447;-77
2022/11/21 08:09:51;;;;;;;0.30;0.20;;;4.60;99.90;;;;;;5115831;28;20455;-77
2022/11/21 08:12:18;;;;;;;0.30;0.30;;;4.60;99.90;;;;;;5115481;28;20515;-77
2022/11/21 08:14:44;;;;;;;0.30;0.30;;;4.70;99.90;;;;;;5115079;28;20992;-77
2022/11/21 08:17:12;;;;;;;0.30;0.30;;;4.80;99.90;;;;;;5115702;28;20447;-77
2022/11/21 08:19:39;;;;;;;0.30;0.30;;;4.90;99.90;;;;;;5115041;28;20476;-77
2022/11/21 08:22:07;;;;;;;0.40;0.40;;;4.90;99.90;;;;;;5114987;28;20931;-77
2022/11/21 08:24:34;;;;;;;0.30;0.30;;;4.90;99.90;;;;;;5115177;28;20486;-77
2022/11/21 08:27:01;;;;;;;0.47;0.47;;;5.00;99.90;;;;;;5115175;28;20446;-77
2022/11/21 08:29:27;;;;;;;0.33;0.33;;;5.10;99.90;;;;;;5115211;28;20448;-77
2022/11/21 08:31:54;;;;;;;0.30;0.20;;;5.30;99.90;;;;;;5115109;28;20448;-77
2022/11/21 08:34:21;;;;;;;0.30;0.30;;;5.70;99.90;;;;;;5114909;28;20488;-78
2022/11/21 08:36:48;;;;;;;0.30;0.20;;;6.50;99.90;;;;;;5115021;28;20440;-78
2022/11/21 08:39:16;;;;;;;0.30;0.30;;;7.40;99.90;;;;;;5115034;28;20452;-78
2022/11/21 08:44:27;;;;;;;0.40;0.37;;;9.90;99.90;;;;;;5115124;28;20439;-78
2022/11/21 08:46:54;;;;;;;0.30;0.27;;;10.90;99.90;;;;;;5114898;28;20447;-79
2022/11/21 08:49:21;;;;;;;0.40;0.40;;;11.70;99.90;;;;;;5114786;28;20443;-78
2022/11/21 08:51:48;;;;;;;0.30;0.20;;;12.20;99.90;;;;;;5115013;28;20452;-78
2022/11/21 08:54:16;;;;;;;0.37;0.30;;;12.90;99.90;;;;;;5114629;28;20479;-78
2022/11/21 08:56:43;;;;;;;0.53;0.30;;;13.80;99.90;;;;;;5114558;28;20450;-78
2022/11/21 08:59:10;;;;;;;0.40;0.30;;;14.90;99.90;;;;;;5114367;28;20443;-79
2022/11/21 09:01:37;;;;;;;0.30;0.30;;;16.00;99.90;;;;;;5114626;28;20440;-79
2022/11/21 09:04:04;;;;;;;0.40;0.30;;;16.30;99.90;;;;;;5114079;28;20467;-79
2022/11/21 09:06:31;;;;;;;0.93;0.30;;;15.30;99.90;;;;;;5114445;28;20470;-79
2022/11/21 09:08:58;;;;;;;0.70;0.30;;;14.20;99.90;;;;;;5114591;28;20440;-79
2022/11/21 09:11:26;;;;;;;0.50;0.33;;;14.20;99.90;;;;;;5114080;27;20820;-79
2022/11/21 09:19:23;;;;;;;2.30;0.40;;;15.80;99.90;;;;;;5114169;28;20532;-79
2022/11/21 09:21:50;;;;;;;0.30;0.30;;;15.90;99.90;;;;;;5114527;28;20439;-79
2022/11/21 09:24:17;;;;;;;0.43;0.40;;;15.70;99.90;;;;;;5114173;28;20475;-79
2022/11/21 09:26:46;;;;;;;0.30;0.30;;;15.40;99.90;;;;;;5114235;28;20443;-79
2022/11/21 09:29:13;;;;;;;0.47;0.30;;;14.70;99.90;;;;;;5114173;28;20455;-78
2022/11/21 09:31:40;;;;;;;0.30;0.30;;;13.70;99.90;;;;;;5114148;28;20489;-78
2022/11/21 09:34:07;;;;;;;0.30;0.30;;;12.80;99.90;;;;;;5113967;28;20490;-78
2022/11/21 09:36:34;;;;;;;0.70;0.40;;;11.70;99.90;;;;;;5114028;28;20453;-78
2022/11/21 09:39:01;;;;;;;0.57;0.30;;;10.80;99.90;;;;;;5113766;28;20966;-78
2022/11/21 09:41:52;;;;;;;0.30;0.20;;;10.30;99.90;;;;;;5113680;28;20947;-78
2022/11/21 09:44:38;;;;;;;0.30;0.30;;;10.50;99.90;;;;;;5113620;28;20472;-78
2022/11/21 09:47:18;;;;;;;0.30;0.30;;;11.60;99.90;;;;;;5113937;28;20443;-78
2022/11/21 09:49:52;;;;;;;0.60;0.30;;;13.10;99.90;;;;;;5113951;28;20428;-78
2022/11/21 09:52:24;;;;;;;1.67;0.33;;;14.40;99.90;;;;;;5114168;28;20444;-79
2022/11/21 09:54:57;;;;;;;0.40;0.30;;;15.00;99.90;;;;;;5113809;28;20491;-78
2022/11/21 09:57:25;;;;;;;0.40;0.40;;;14.80;99.90;;;;;;5114121;28;20467;-78
2022/11/21 09:59:54;;;;;;;0.30;0.30;;;14.20;99.90;;;;;;5114322;28;20470;-78
2022/11/21 10:02:23;;;;;;;0.30;0.30;;;13.20;99.90;;;;;;5113711;28;20454;-78
2022/11/21 10:04:51;;;;;;;0.30;0.20;;;12.40;99.90;;;;;;5113630;28;20470;-78
2022/11/21 10:07:23;;;;;;;0.67;0.30;;;11.70;99.90;;;;;;5113708;28;20460;-78
2022/11/21 10:10:05;;;;;;;0.30;0.20;;;11.00;99.90;;;;;;5113714;28;20451;-78
2022/11/21 10:12:38;;;;;;;2.93;0.33;;;10.40;99.90;;;;;;5113543;28;20432;-78
2022/11/21 10:15:21;;;;;;;0.40;0.40;;;9.90;99.90;;;;;;5113341;28;20978;-80
2022/11/21 10:18:03;;;;;;;1.03;0.33;;;9.80;99.90;;;;;;5113664;28;20455;-80
2022/11/21 10:20:42;;;;;;;0.30;0.30;;;9.60;99.90;;;;;;5113342;28;20524;-78
2022/11/21 10:23:38;;;;;;;0.40;0.30;;;9.50;99.90;;;;;;5116330;28;20431;-78
2022/11/21 10:26:16;;;;;;;0.30;0.30;;;9.30;99.90;;;;;;5113811;28;20950;-78
2022/11/21 10:28:50;;;;;;;0.30;0.20;;;9.00;99.90;;;;;;5117728;28;20491;-79
2022/11/21 10:31:20;;;;;;;0.30;0.20;;;9.00;99.90;;;;;;5117650;28;20434;-78
2022/11/21 10:33:47;;;;;;;0.30;0.20;;;8.90;99.90;;;;;;5117456;28;20459;-77
2022/11/21 10:36:23;;;;;;;0.50;0.30;;;8.80;99.90;;;;;;5117462;28;20455;-78
2022/11/21 10:38:52;;;;;;;0.30;0.20;;;8.70;99.90;;;;;;5117266;28;20987;-78
2022/11/21 10:41:25;;;;;;;0.30;0.30;;;8.70;99.90;;;;;;5117402;28;20443;-78
2022/11/21 10:46:56;;;;;;;0.30;0.30;;;8.80;99.90;;;;;;5117410;28;20408;-78
2022/11/21 10:49:24;;;;;;;0.30;0.30;;;8.80;99.90;;;;;;5117559;28;20450;-78
2022/11/21 10:51:56;;;;;;;0.30;0.20;;;8.80;99.90;;;;;;5117198;28;20460;-78
2022/11/21 10:54:32;;;;;;;0.60;0.30;;;8.80;99.90;;;;;;5117029;28;20482;-78
2022/11/21 10:57:02;;;;;;;0.30;0.30;;;8.80;99.90;;;;;;5117105;27;20424;-77
2022/11/21 10:59:30;;;;;;;0.77;0.30;;;8.70;99.90;;;;;;5117007;28;20809;-78
2022/11/21 11:02:00;;;;;;;0.40;0.30;;;8.80;99.90;;;;;;5116757;28;20902;-78
2022/11/21 11:04:28;;;;;;;0.30;0.20;;;8.80;99.90;;;;;;5116941;28;20479;-78
2022/11/21 11:06:58;;;;;;;0.30;0.20;;;8.90;99.90;;;;;;5116587;28;20450;-78
2022/11/21 11:09:30;;;;;;;0.63;0.30;;;8.90;99.90;;;;;;5117019;28;20451;-78
2022/11/21 11:12:21;;;;;;;0.30;0.30;;;8.90;99.90;;;;;;5116597;27;20771;-78
2022/11/21 11:14:51;;;;;;;2.77;0.40;;;8.80;99.90;;;;;;5116594;28;20479;-78
2022/11/21 11:17:28;;;;;;;0.40;0.30;;;8.70;99.90;;;;;;5117146;27;20546;-77
2022/11/21 11:20:05;;;;;;;0.30;0.30;;;8.60;99.90;;;;;;5116471;28;20482;-78
2022/11/21 11:22:32;;;;;;;0.30;0.20;;;8.50;99.90;;;;;;5116370;28;20922;-78
2022/11/21 11:24:59;;;;;;;0.30;0.30;;;8.50;99.90;;;;;;5116373;28;21005;-78
2022/11/21 11:27:29;;;;;;;0.30;0.20;;;8.50;99.90;;;;;;5116376;28;20934;-78
2022/11/21 11:29:56;;;;;;;0.30;0.20;;;8.60;99.90;;;;;;5116263;28;20439;-78
2022/11/21 11:32:23;;;;;;;0.40;0.30;;;8.50;99.90;;;;;;5116631;28;20447;-78
2022/11/21 11:34:59;;;;;;;0.50;0.50;;;8.60;99.90;;;;;;5114967;28;20890;-78
2022/11/21 11:37:41;;;;;;;0.30;0.30;;;8.70;99.90;;;;;;5116489;28;20436;-78
2022/11/21 11:40:18;;;;;;;0.30;0.30;;;8.90;99.90;;;;;;5116241;27;20424;-78
2022/11/21 11:49:02;;;;;;;0.30;0.27;;;8.90;99.90;;;;;;5116214;28;20439;-78
2022/11/21 11:51:36;;;;;;;0.30;0.30;;;9.00;99.90;;;;;;5116051;28;20435;-78
2022/11/21 11:54:12;;;;;;;0.30;0.20;;;9.00;99.90;;;;;;5116258;28;20478;-78
2022/11/21 11:56:39;;;;;;;0.30;0.30;;;9.10;99.90;;;;;;5115637;28;20878;-78
2022/11/21 11:59:14;;;;;;;0.30;0.30;;;9.30;99.90;;;;;;5116145;28;20443;-78
2022/11/21 12:01:44;;;;;;;0.50;0.30;;;9.50;99.90;;;;;;5115559;28;20480;-78
2022/11/21 12:04:13;;;;;;;2.30;0.40;;;9.70;99.90;;;;;;5115719;28;20463;-78
2022/11/21 12:06:48;;;;;;;0.77;0.30;;;9.90;99.90;;;;;;5115749;28;20480;-77
2022/11/21 12:09:32;;;;;;;0.40;0.30;;;9.90;99.90;;;;;;5115407;28;20430;-77
2022/11/21 12:12:07;;;;;;;0.50;0.30;;;9.90;99.90;;;;;;5115666;28;20442;-77
2022/11/21 12:17:39;;;;;;;0.30;0.20;;;9.60;99.90;;;;;;5115660;28;20600;-77
2022/11/21 12:20:15;;;;;;;0.40;0.30;;;9.60;99.90;;;;;;5115392;28;20520;-77
2022/11/21 12:22:44;;;;;;;0.83;0.83;;;9.50;99.90;;;;;;5115519;28;20802;-78
2022/11/21 12:25:12;;;;;;;0.30;0.27;;;9.50;99.90;;;;;;5115305;28;20463;-78
2022/11/21 12:27:41;;;;;;;0.40;0.30;;;9.50;99.90;;;;;;5115373;28;20440;-78
2022/11/21 12:30:49;;;;;;;0.30;0.30;;;9.60;99.90;;;;;;5115316;28;20447;-77
2022/11/21 12:33:21;;;;;;;0.40;0.40;;;9.60;99.90;;;;;;5103435;27;20478;-78
2022/11/21 12:36:10;;;;;;;0.30;0.20;;;9.70;99.90;;;;;;5114871;28;20993;-78
2022/11/21 12:39:07;;;;;;;0.30;0.20;;;9.70;99.90;;;;;;5114871;28;20420;-78
2022/11/21 12:44:35;;;;;;;0.30;0.30;;;9.60;99.90;;;;;;5114912;28;20446;-77
2022/11/21 12:47:16;;;;;;;0.30;0.30;;;9.40;99.90;;;;;;5115126;27;20443;-77
2022/11/21 12:55:35;;;;;;;0.30;0.20;;;9.20;99.90;;;;;;5115874;27;20500;-77
2022/11/21 12:58:13;;;;;;;0.30;0.20;;;8.90;99.90;;;;;;5114535;28;20424;-76
2022/11/21 13:00:53;;;;;;;0.40;0.30;;;8.70;99.90;;;;;;5114793;28;20427;-77
2022/11/21 13:03:47;;;;;;;0.47;0.30;;;8.60;99.90;;;;;;5114361;28;20466;-77
2022/11/21 13:06:18;;;;;;;0.30;0.30;;;8.50;99.90;;;;;;5114553;28;20444;-77
2022/11/21 13:08:47;;;;;;;2.97;0.30;;;8.40;99.90;;;;;;5114597;28;20428;-77
2022/11/21 13:14:15;;;;;;;0.97;0.40;;;8.20;99.90;;;;;;5114192;28;20462;-77
2022/11/21 13:16:46;;;;;;;0.30;0.20;;;8.20;99.90;;;;;;5114455;28;20428;-77
2022/11/21 13:19:21;;;;;;;0.30;0.30;;;8.20;99.90;;;;;;5114053;28;20502;-77
2022/11/21 13:21:49;;;;;;;0.50;0.30;;;8.10;99.90;;;;;;5114426;28;20428;-77
2022/11/21 13:24:55;;;;;;;0.50;0.47;;;8.10;99.90;;;;;;5113593;28;20993;-77
2022/11/21 13:27:32;;;;;;;0.30;0.30;;;8.00;99.90;;;;;;5114249;28;21001;-77
2022/11/21 13:30:24;;;;;;;0.30;0.30;;;7.90;99.90;;;;;;5114303;28;20423;-77
2022/11/21 13:32:52;;;;;;;0.30;0.20;;;8.00;99.90;;;;;;5113386;28;20966;-77
2022/11/21 13:36:04;;;;;;;0.50;0.50;;;8.00;99.90;;;;;;5113993;28;20479;-77
2022/11/21 13:38:31;;;;;;;0.40;0.30;;;7.90;99.90;;;;;;5114200;28;20432;-77
2022/11/21 13:43:44;;;;;;;0.40;0.40;;;7.80;99.90;;;;;;5129877;27;20450;-77
2022/11/21 13:46:24;;;;;;;0.40;0.40;;;7.80;99.90;;;;;;5134604;27;20443;-77
2022/11/21 13:49:04;;;;;;;0.30;0.20;;;7.70;99.90;;;;;;5134252;27;20792;-77